Wenonah, Illinois
Current Conditions -  °F | °C
As of 1:55 PM on Friday 31 Oct 2014 (Local Time) from KTAZ Reporting Station
Broken Clouds Broken Clouds  
Wind Chill: 34°   Ceiling: 4800
Heat Index: 43°   Visibility: 10mi
Dew Point: 27°   Wind: 22mph
Humidity: 53%   Direction: 340°NNW
Pressure: 30.24"   Gusts: 37mph
Location:  39.3183°N, 89.2952°W
Report Text: KTAZ 311855Z AUTO 34019G32KT 10SM BKN048 06/M03 A3024 RMK AO2
Loading
Personal Weather Stations






























Interactive Weather Map
Tropical Storm Tracking
New forecast layout! Learn more

10-Day Weather Forecast

Advertisements
Track Severe Weather on mobile